Andrews, TX

1:40 AM CDT on June 29, 2017 (GMT -0500)
Andrews

Weather History for KE11 - March, 2014

Change the Weather History Date:

Monday, March 10, 2014

  Actual Average (KMAF) Record (KMAF)
Temperature  
Mean Temperature 57 °F -  
Max Temperature 74 °F 65 °F 88 °F (1954)
Min Temperature 40 °F 38 °F 14 °F (1948)
Degree Days  
Heating Degree Days 8    
Growing Degree Days 7 (Base 50)    
Moisture  
Dew Point 27 °F    
Average Humidity 33    
Maximum Humidity 62    
Minimum Humidity 19    
Precipitation  
Precipitation 0.00 in - - ()
Sea Level Pressure  
Sea Level Pressure 30.03 in    
Wind  
Wind Speed 9 mph (SW)    
Max Wind Speed 15 mph    
Max Gust Speed 25 mph    
Visibility 10 miles    
Events      
Averages and records for this station are not official NWS values.
T = Trace of Precipitation, MM = Missing Value Source: NWS Daily Summary

Daily Weather History Graph

Daily Weather History Graph

Search for Another Location

Airport or City:

Trip Planner

Search our weather history database for the weather conditions in past years. The results will help you decide how hot, cold, wet, or windy it might be!

Date:

Astronomy

Mar. 10, 2014 Rise Set
Actual Time 8:06 AM CDT 7:54 PM CDT
Civil Twilight 7:42 AM CDT 8:19 PM CDT
Nautical Twilight 7:13 AM CDT 8:47 PM CDT
Astronomical Twilight 6:45 AM CDT 9:15 PM CDT
Moon 2:53 PM CDT (3/10) 4:06 AM CDT (3/10)
Length of Visible Light 12h 36m
Length of Day
11h 47m
Waxing Gibbous, 70% of the Moon is Illuminated
Mar 10
Waxing Gibbous
Mar 16
Full
Mar 23
Last Quarter
Mar 30
New
Apr 7
First Quarter

Hourly Weather History & Observations

Time (CDT) Temp. Windchill Dew Point Humidity Pressure Visibility Wind Dir Wind Speed Gust Speed Precip Events Conditions
12:15 AM 47.3 °F - 21.6 °F 36% 30.21 in 10.0 mi SW 6.9 mph - N/A   Clear
12:35 AM 47.7 °F - 21.2 °F 35% 30.20 in 10.0 mi SW 6.9 mph - N/A   Clear
12:55 AM 46.6 °F - 21.2 °F 37% 30.20 in 10.0 mi SW 6.9 mph - N/A   Clear
1:15 AM 46.8 °F - 21.7 °F 37% 30.20 in 10.0 mi WSW 6.9 mph - N/A   Clear
1:35 AM 47.1 °F - 21.4 °F 36% 30.20 in 10.0 mi SW 8.1 mph - N/A   Clear
1:55 AM 47.3 °F - 21.7 °F 36% 30.19 in 10.0 mi WSW 6.9 mph - N/A   Clear
2:15 AM 47.1 °F - 21.6 °F 36% 30.19 in 10.0 mi WSW 8.1 mph - N/A   Clear
2:35 AM 46.2 °F 42.2 °F 21.7 °F 38% 30.19 in 10.0 mi SW 8.1 mph - N/A   Clear
2:55 AM 46.6 °F - 21.9 °F 38% 30.19 in 10.0 mi West 8.1 mph - N/A   Clear
3:15 AM 46.9 °F - 22.5 °F 38% 30.18 in 10.0 mi West 8.1 mph - N/A   Clear
3:35 AM 46.2 °F 42.2 °F 22.8 °F 40% 30.17 in 10.0 mi WSW 8.1 mph - N/A   Clear
3:55 AM 46.6 °F - 23.0 °F 39% 30.15 in 10.0 mi WSW 10.4 mph - N/A   Clear
4:15 AM 47.3 °F - 22.6 °F 38% 30.15 in 10.0 mi WSW 10.4 mph - N/A   Clear
4:35 AM 46.6 °F - 22.6 °F 39% 30.13 in 10.0 mi WSW 10.4 mph 16.1 mph N/A   Clear
4:55 AM 46.8 °F - 22.8 °F 39% 30.12 in 10.0 mi WSW 10.4 mph - N/A   Clear
5:15 AM 45.5 °F 40.3 °F 22.8 °F 41% 30.12 in 10.0 mi WSW 10.4 mph - N/A   Clear
5:35 AM 44.8 °F 40.4 °F 22.8 °F 42% 30.12 in 10.0 mi WSW 8.1 mph - N/A   Clear
5:55 AM 44.6 °F 39.7 °F 22.8 °F 42% 30.11 in 10.0 mi WSW 9.2 mph - N/A   Clear
6:15 AM 45.3 °F 40.1 °F 22.8 °F 41% 30.10 in 10.0 mi WSW 10.4 mph - N/A   Clear
6:35 AM 44.8 °F 40.4 °F 22.6 °F 42% 30.12 in 10.0 mi West 8.1 mph - N/A   Clear
6:55 AM 43.2 °F 39.7 °F 22.1 °F 43% 30.12 in 10.0 mi WNW 5.8 mph - N/A   Clear
7:15 AM 40.5 °F 35.8 °F 21.7 °F 47% 30.11 in 10.0 mi West 6.9 mph - N/A   Clear
7:35 AM 43.2 °F 39.0 °F 22.1 °F 43% 30.12 in 10.0 mi West 6.9 mph - N/A   Clear
7:55 AM 43.0 °F 40.3 °F 23.2 °F 46% 30.12 in 10.0 mi West 4.6 mph - N/A   Clear
8:15 AM 41.5 °F 38.6 °F 23.5 °F 49% 30.11 in 10.0 mi WSW 4.6 mph - N/A   Clear
8:35 AM 43.2 °F 39.7 °F 24.3 °F 47% 30.10 in 10.0 mi West 5.8 mph - N/A   Clear
8:55 AM 45.9 °F 41.7 °F 23.9 °F 42% 30.11 in 10.0 mi SW 8.1 mph - N/A   Clear
9:15 AM 46.4 °F 42.9 °F 23.0 °F 40% 30.12 in 10.0 mi SW 6.9 mph - N/A   Clear
9:35 AM 49.5 °F - 24.4 °F 38% 30.12 in 10.0 mi WSW 6.9 mph - N/A   Clear
9:55 AM 53.2 °F - 25.0 °F 33% 30.12 in 10.0 mi WSW 6.9 mph - N/A   Clear
10:15 AM 55.8 °F - 24.6 °F 30% 30.12 in 10.0 mi WSW 8.1 mph - N/A   Clear
10:35 AM 58.1 °F - 24.1 °F 27% 30.12 in 10.0 mi SW 9.2 mph - N/A   Clear
10:55 AM 60.1 °F - 24.4 °F 26% 30.12 in 10.0 mi WSW 10.4 mph - N/A   Clear
11:15 AM 61.7 °F - 23.9 °F 24% 30.11 in 10.0 mi SW 11.5 mph 17.3 mph N/A   Clear
11:35 AM 62.6 °F - 25.2 °F 24% 30.10 in 10.0 mi SW 11.5 mph - N/A   Clear
11:55 AM 64.2 °F - 25.3 °F 23% 30.09 in 10.0 mi WSW 11.5 mph - N/A   Clear
12:15 PM 65.3 °F - 25.9 °F 23% 30.08 in 10.0 mi WSW 9.2 mph - N/A   Clear
12:35 PM 65.7 °F - 25.9 °F 22% 30.08 in 10.0 mi SW 12.7 mph 17.3 mph N/A   Clear
12:55 PM 66.7 °F - 26.2 °F 22% 30.07 in 10.0 mi SSW 9.2 mph 17.3 mph N/A   Clear
1:15 PM 67.8 °F - 27.1 °F 22% 30.05 in 10.0 mi SW 8.1 mph - N/A   Clear
1:35 PM 68.9 °F - 27.7 °F 21% 30.03 in 10.0 mi SW 9.2 mph - N/A   Clear
1:55 PM 69.6 °F - 28.8 °F 22% 30.02 in 10.0 mi SSW 11.5 mph 18.4 mph N/A   Clear
2:15 PM 70.3 °F - 28.9 °F 21% 30.00 in 10.0 mi SSW 8.1 mph 16.1 mph N/A   Clear
2:35 PM 71.2 °F - 28.9 °F 21% 29.98 in 10.0 mi SW 13.8 mph - N/A   Clear
2:55 PM 71.6 °F - 28.2 °F 20% 29.96 in 10.0 mi SW 10.4 mph 19.6 mph N/A   Clear
3:15 PM 73.0 °F - 28.6 °F 19% 29.94 in 10.0 mi SSW 11.5 mph 16.1 mph N/A   Clear
3:35 PM 72.9 °F - 29.1 °F 20% 29.93 in 10.0 mi South 15.0 mph 21.9 mph N/A   Clear
3:55 PM 73.8 °F - 29.7 °F 20% 29.92 in 10.0 mi SSW 15.0 mph 18.4 mph N/A   Clear
4:15 PM 73.4 °F - 29.7 °F 20% 29.91 in 10.0 mi SW 11.5 mph 21.9 mph N/A   Clear
4:35 PM 74.5 °F - 30.2 °F 20% 29.91 in 10.0 mi SSW 10.4 mph 19.6 mph N/A   Clear
4:55 PM 74.5 °F - 30.2 °F 20% 29.90 in 10.0 mi SW 11.5 mph 18.4 mph N/A   Clear
5:15 PM 73.8 °F - 30.4 °F 20% 29.89 in 10.0 mi SW 12.7 mph 20.7 mph N/A   Clear
5:35 PM 74.1 °F - 31.1 °F 21% 29.89 in 10.0 mi SW 8.1 mph 25.3 mph N/A   Clear
5:55 PM 74.1 °F - 31.5 °F 21% 29.89 in 10.0 mi SW 12.7 mph 17.3 mph N/A   Clear
6:15 PM 73.4 °F - 31.5 °F 21% 29.89 in 10.0 mi WSW 13.8 mph 17.3 mph N/A   Clear
6:35 PM 72.7 °F - 31.3 °F 22% 29.89 in 10.0 mi SW 9.2 mph - N/A   Clear
6:55 PM 72.1 °F - 31.1 °F 22% 29.88 in 10.0 mi SSW 10.4 mph - N/A   Clear
7:15 PM 71.6 °F - 30.7 °F 22% 29.88 in 10.0 mi SW 12.7 mph 17.3 mph N/A   Clear
7:35 PM 70.0 °F - 30.7 °F 23% 29.88 in 10.0 mi SW 9.2 mph - N/A   Clear
7:55 PM 67.8 °F - 30.7 °F 25% 29.87 in 10.0 mi SSW 8.1 mph - N/A   Clear
8:15 PM 65.1 °F - 31.1 °F 28% 29.87 in 10.0 mi SSW 5.8 mph - N/A   Clear
8:35 PM 62.1 °F - 32.0 °F 32% 29.87 in 10.0 mi South 5.8 mph - N/A   Clear
8:55 PM 62.6 °F - 33.1 °F 33% 29.87 in 10.0 mi South 6.9 mph - N/A   Clear
9:15 PM 61.2 °F - 33.1 °F 35% 29.87 in 10.0 mi South 5.8 mph - N/A   Clear
9:35 PM 60.8 °F - 33.8 °F 36% 29.89 in 10.0 mi South 5.8 mph - N/A   Clear
9:55 PM 59.9 °F - 34.0 °F 38% 29.88 in 10.0 mi South 8.1 mph - N/A   Clear
10:15 PM 59.2 °F - 34.3 °F 39% 29.88 in 10.0 mi South 9.2 mph - N/A   Clear
10:35 PM 58.3 °F - 34.9 °F 41% 29.88 in 10.0 mi South 9.2 mph - N/A   Clear
10:55 PM 58.3 °F - 36.5 °F 44% 29.87 in 10.0 mi South 10.4 mph 18.4 mph N/A   Clear
11:15 PM 56.7 °F - 39.0 °F 52% 29.87 in 10.0 mi South 12.7 mph - N/A   Clear
11:35 PM 56.3 °F - 41.2 °F 57% 29.87 in 10.0 mi South 13.8 mph - N/A   Clear
11:55 PM 55.4 °F - 42.6 °F 62% 29.86 in 10.0 mi SSW 12.7 mph 18.4 mph N/A   Clear